createdAt,value
2023-03-22T00:03:49.419Z,60.30
2023-03-22T00:08:53.755Z,60.07
2023-03-22T00:13:59.104Z,61.63
2023-03-22T00:19:02.306Z,60.57
2023-03-22T00:24:05.653Z,59.87
2023-03-22T00:29:08.884Z,62.97
2023-03-22T00:34:12.436Z,62.93
2023-03-22T00:39:16.048Z,59.70
2023-03-22T00:44:19.216Z,61.63
2023-03-22T00:49:22.317Z,59.77
2023-03-22T00:54:25.627Z,60.37
2023-03-22T00:59:28.754Z,61.47
2023-03-22T01:04:32.803Z,59.23
2023-03-22T01:09:36.052Z,61.03
2023-03-22T01:14:39.823Z,63.57
2023-03-22T01:19:43.000Z,60.23
2023-03-22T01:24:46.298Z,61.43
2023-03-22T01:29:50.146Z,57.47
2023-03-22T01:34:53.387Z,66.03
2023-03-22T01:39:57.092Z,60.63
2023-03-22T01:45:15.784Z,67.80
2023-03-22T01:50:19.982Z,63.43
2023-03-22T01:55:24.737Z,61.63
2023-03-22T02:00:28.225Z,57.33
2023-03-22T02:05:32.026Z,58.43
2023-03-22T02:10:35.285Z,58.47
2023-03-22T02:15:49.313Z,57.10
2023-03-22T02:21:44.687Z,62.20
2023-03-22T02:27:16.656Z,56.27
2023-03-22T02:32:19.761Z,54.27
2023-03-22T02:37:35.007Z,61.07
2023-03-22T02:42:59.994Z,58.87
2023-03-22T02:48:22.234Z,58.03
2023-03-22T02:53:43.247Z,59.67
2023-03-22T02:58:54.644Z,60.80
2023-03-22T03:04:02.754Z,59.13
2023-03-22T03:09:06.794Z,62.67
2023-03-22T03:14:21.616Z,59.07
2023-03-22T03:19:34.414Z,62.30
2023-03-22T03:24:46.586Z,56.27
2023-03-22T03:29:53.329Z,65.70
2023-03-22T03:35:32.856Z,69.90
2023-03-22T03:40:53.903Z,66.00
2023-03-22T03:45:57.274Z,69.27
2023-03-22T03:51:02.400Z,63.00
2023-03-22T03:56:06.137Z,68.20
2023-03-22T04:01:09.306Z,66.97
2023-03-22T04:06:12.442Z,66.10
2023-03-22T04:11:15.782Z,67.83
2023-03-22T04:16:18.931Z,73.87
2023-03-22T04:21:22.084Z,73.20
2023-03-22T04:26:26.656Z,71.83
2023-03-22T04:31:34.437Z,71.50
2023-03-22T04:36:39.936Z,77.20
2023-03-22T04:41:42.975Z,66.10
2023-03-22T04:46:46.079Z,68.30
2023-03-22T04:51:49.265Z,62.93
2023-03-22T04:56:52.463Z,70.30
2023-03-22T05:01:55.764Z,66.27
2023-03-22T05:06:58.904Z,70.03
2023-03-22T05:12:02.289Z,75.20
2023-03-22T05:17:05.478Z,70.13
2023-03-22T05:22:08.613Z,68.10
2023-03-22T05:27:11.772Z,74.30
2023-03-22T05:32:14.864Z,69.77
2023-03-22T05:37:21.528Z,71.27
2023-03-22T05:42:24.687Z,73.87
2023-03-22T05:47:27.812Z,72.13
2023-03-22T05:52:30.864Z,78.33
2023-03-22T05:57:34.301Z,71.03
2023-03-22T06:02:37.489Z,73.10
2023-03-22T06:07:41.638Z,67.70
2023-03-22T06:12:44.924Z,73.77
2023-03-22T06:17:48.403Z,78.20
2023-03-22T06:22:51.587Z,78.13
2023-03-22T06:27:54.688Z,75.67
2023-03-22T06:33:00.872Z,75.87
2023-03-22T06:38:04.279Z,78.63
2023-03-22T06:43:07.582Z,81.27
2023-03-22T06:48:10.591Z,79.53
2023-03-22T06:53:13.758Z,76.20
2023-03-22T06:58:16.883Z,80.23
2023-03-22T07:03:20.049Z,74.00
2023-03-22T07:08:23.305Z,78.13
2023-03-22T07:13:26.640Z,81.07
2023-03-22T07:18:32.078Z,77.67
2023-03-22T07:23:35.378Z,75.73
2023-03-22T07:28:39.588Z,75.07
2023-03-22T07:33:43.159Z,79.63
2023-03-22T07:38:46.199Z,83.77
2023-03-22T07:43:56.628Z,75.50
2023-03-22T07:49:03.278Z,75.17
2023-03-22T07:54:07.789Z,66.37
2023-03-22T07:59:11.478Z,72.07
2023-03-22T08:04:14.604Z,67.57
2023-03-22T08:09:18.524Z,64.83
2023-03-22T08:14:30.523Z,59.63
2023-03-22T08:19:37.195Z,57.33
2023-03-22T08:24:40.321Z,55.63
2023-03-22T08:29:43.504Z,49.87
2023-03-22T08:34:47.692Z,48.63
2023-03-22T08:39:51.015Z,51.00
2023-03-22T08:44:54.163Z,51.27
2023-03-22T08:49:57.496Z,49.70
2023-03-22T08:55:01.436Z,54.20
2023-03-22T09:00:07.140Z,51.00
2023-03-22T09:05:10.891Z,51.47
2023-03-22T09:10:14.160Z,51.57
2023-03-22T09:15:17.319Z,51.13
2023-03-22T09:20:25.557Z,60.23
2023-03-22T09:25:28.608Z,52.50
2023-03-22T09:30:32.087Z,52.67
2023-03-22T09:35:35.254Z,50.47
2023-03-22T09:40:47.088Z,49.17
2023-03-22T09:45:52.386Z,44.57
2023-03-22T09:50:56.036Z,45.73
2023-03-22T09:56:32.046Z,45.40
2023-03-22T10:01:48.131Z,41.33
2023-03-22T10:07:07.320Z,38.07
2023-03-22T10:12:28.596Z,37.57
2023-03-22T10:17:32.275Z,32.73
2023-03-22T10:22:41.354Z,33.60
2023-03-22T10:27:47.050Z,36.63
2023-03-22T10:33:01.978Z,32.47
2023-03-22T10:38:09.798Z,28.70
2023-03-22T10:43:28.000Z,32.37
2023-03-22T10:48:42.448Z,35.90
2023-03-22T10:53:49.505Z,32.03
2023-03-22T10:58:53.128Z,28.87
2023-03-22T11:04:17.150Z,28.90
2023-03-22T11:09:22.265Z,33.07
2023-03-22T11:14:35.680Z,30.40
2023-03-22T11:19:40.502Z,28.07
2023-03-22T11:24:46.988Z,27.57
2023-03-22T11:29:53.098Z,26.27
2023-03-22T11:35:05.214Z,26.97
2023-03-22T11:40:14.292Z,26.03
2023-03-22T11:45:31.421Z,24.07
2023-03-22T11:50:38.231Z,24.20
2023-03-22T11:55:43.122Z,22.77
2023-03-22T12:00:48.472Z,24.50
2023-03-22T12:05:53.025Z,26.07
2023-03-22T13:24:21.238Z,17.93
2023-03-22T13:29:50.085Z,17.40
2023-03-22T13:34:54.841Z,17.27
2023-03-22T13:40:32.208Z,17.00
2023-03-22T13:45:35.862Z,17.30
2023-03-22T13:50:40.143Z,16.20
2023-03-22T13:55:59.932Z,15.93
2023-03-22T14:01:13.589Z,16.73
2023-03-22T14:18:37.529Z,14.80
